createdAt,value
2023-02-23T00:00:28.563Z,3.47
2023-02-23T00:05:37.690Z,3.03
2023-02-23T00:10:40.963Z,2.90
2023-02-23T00:15:44.267Z,2.47
2023-02-23T00:20:57.763Z,3.20
2023-02-23T00:26:01.051Z,2.60
2023-02-23T00:31:04.473Z,2.87
2023-02-23T00:36:11.780Z,3.17
2023-02-23T00:41:20.317Z,3.30
2023-02-23T00:46:27.141Z,3.47
2023-02-23T00:51:32.645Z,3.67
2023-02-23T00:56:36.249Z,3.53
2023-02-23T01:01:41.970Z,3.80
2023-02-23T01:06:46.733Z,3.80
2023-02-23T01:11:49.975Z,3.70
2023-02-23T01:16:53.220Z,3.70
2023-02-23T01:21:57.827Z,3.50
2023-02-23T01:27:01.081Z,3.87
2023-02-23T01:32:05.552Z,3.83
2023-02-23T01:37:10.258Z,3.80
2023-02-23T01:42:14.820Z,3.60
2023-02-23T01:47:20.542Z,3.13
2023-02-23T01:52:25.263Z,4.03
2023-02-23T01:57:28.610Z,4.03
2023-02-23T02:02:34.118Z,3.20
2023-02-23T02:07:39.801Z,3.40
2023-02-23T02:12:45.908Z,2.90
2023-02-23T02:17:59.412Z,3.00
2023-02-23T02:23:31.543Z,3.97
2023-02-23T02:28:59.780Z,3.93
2023-02-23T02:34:33.711Z,3.60
2023-02-23T02:39:46.736Z,3.67
2023-02-23T02:44:58.642Z,3.10
2023-02-23T02:50:07.261Z,3.40
2023-02-23T02:55:16.689Z,3.50
2023-02-23T03:00:40.669Z,4.00
2023-02-23T03:06:06.144Z,3.70
2023-02-23T03:11:31.820Z,4.23
2023-02-23T03:17:02.304Z,3.80
2023-02-23T03:22:32.024Z,3.23
2023-02-23T03:28:05.598Z,3.93
2023-02-23T03:33:30.869Z,3.90
2023-02-23T03:38:55.077Z,3.67
2023-02-23T03:44:20.925Z,3.40
2023-02-23T03:49:44.608Z,3.37
2023-02-23T03:55:11.210Z,3.33
2023-02-23T04:00:36.684Z,3.10
2023-02-23T04:06:00.413Z,2.90
2023-02-23T04:11:30.332Z,2.83
2023-02-23T04:16:34.892Z,3.63
2023-02-23T04:21:38.197Z,2.97
2023-02-23T04:26:41.529Z,2.87
2023-02-23T04:31:46.319Z,2.50
2023-02-23T04:36:51.420Z,3.47
2023-02-23T04:41:54.803Z,3.80
2023-02-23T04:46:59.622Z,4.03
2023-02-23T04:52:02.941Z,3.50
2023-02-23T04:57:06.736Z,3.07
2023-02-23T05:02:14.490Z,2.97
2023-02-23T05:07:17.874Z,3.73
2023-02-23T05:12:21.832Z,3.80
2023-02-23T05:17:26.858Z,3.90
2023-02-23T05:22:30.180Z,3.33
2023-02-23T05:27:34.485Z,3.70
2023-02-23T05:32:39.396Z,3.40
2023-02-23T05:37:42.708Z,4.23
2023-02-23T05:42:46.329Z,3.60
2023-02-23T05:47:52.139Z,3.60
2023-02-23T05:52:55.469Z,3.30
2023-02-23T05:57:58.793Z,3.40
2023-02-23T06:03:03.632Z,3.30
2023-02-23T06:08:07.076Z,3.67
2023-02-23T06:13:10.546Z,3.40
2023-02-23T06:18:15.612Z,3.23
2023-02-23T06:23:19.292Z,4.10
2023-02-23T06:28:22.710Z,4.00
2023-02-23T06:33:27.870Z,3.70
2023-02-23T06:38:31.151Z,4.10
2023-02-23T06:43:34.436Z,3.73
2023-02-23T06:48:39.550Z,4.50
2023-02-23T06:53:42.858Z,4.47
2023-02-23T06:58:46.489Z,5.47
2023-02-23T07:03:51.295Z,5.27
2023-02-23T07:08:54.800Z,4.73
2023-02-23T07:13:59.897Z,4.60
2023-02-23T07:19:05.007Z,4.87
2023-02-23T07:24:08.866Z,4.10
2023-02-23T07:29:13.540Z,4.23
2023-02-23T07:34:18.274Z,4.10
2023-02-23T07:39:21.625Z,4.43
2023-02-23T07:44:25.169Z,4.67
2023-02-23T07:49:30.726Z,6.20
2023-02-23T07:54:34.858Z,5.50
2023-02-23T07:59:39.276Z,4.50
2023-02-23T08:04:44.400Z,5.83
2023-02-23T08:09:47.771Z,5.67
2023-02-23T08:14:51.228Z,5.33
2023-02-23T08:19:56.055Z,5.33
2023-02-23T08:25:00.174Z,6.63
2023-02-23T08:30:04.115Z,10.37
2023-02-23T08:35:11.003Z,5.87
2023-02-23T08:40:15.844Z,5.27
2023-02-23T08:45:20.285Z,4.93
2023-02-23T08:50:27.408Z,5.70
2023-02-23T08:55:30.910Z,4.90
2023-02-23T09:00:34.239Z,6.63
2023-02-23T09:05:39.831Z,7.60
2023-02-23T09:10:44.936Z,6.20
2023-02-23T09:15:48.299Z,5.57
2023-02-23T09:20:53.109Z,5.53
2023-02-23T09:25:56.469Z,4.83
2023-02-23T09:30:59.934Z,5.37
2023-02-23T09:36:07.850Z,5.20
2023-02-23T09:41:40.127Z,5.63
2023-02-23T09:46:50.770Z,5.70
2023-02-23T09:51:59.290Z,6.17
2023-02-23T09:57:06.446Z,6.00
2023-02-23T10:02:20.583Z,5.57
2023-02-23T10:07:44.611Z,5.37
2023-02-23T10:12:56.336Z,5.90
2023-02-23T10:18:07.159Z,5.77
2023-02-23T10:23:15.360Z,5.90
2023-02-23T10:28:22.518Z,5.70
2023-02-23T10:33:38.032Z,7.00
2023-02-23T10:38:42.821Z,6.93
2023-02-23T10:43:46.229Z,6.57
2023-02-23T10:48:51.921Z,5.80
2023-02-23T10:53:56.822Z,5.77
2023-02-23T10:59:00.674Z,5.77
2023-02-23T11:04:17.942Z,5.50
2023-02-23T11:09:43.879Z,5.83
2023-02-23T11:14:50.356Z,5.13
2023-02-23T11:19:59.891Z,5.70
2023-02-23T11:25:16.604Z,5.70
2023-02-23T11:30:24.682Z,5.90
2023-02-23T11:35:31.868Z,5.67
2023-02-23T11:40:36.666Z,5.50
2023-02-23T11:45:46.781Z,5.37
2023-02-23T11:50:51.037Z,5.13
2023-02-23T11:55:59.351Z,5.53
2023-02-23T12:01:05.148Z,5.00
2023-02-23T12:06:10.421Z,4.77
2023-02-23T12:11:18.476Z,5.20
2023-02-23T12:16:27.661Z,5.23
2023-02-23T12:21:36.918Z,4.30
2023-02-23T12:26:50.592Z,4.77
2023-02-23T12:31:59.281Z,4.70
2023-02-23T12:37:12.643Z,4.70
2023-02-23T12:42:21.366Z,4.70
2023-02-23T12:47:30.832Z,5.20
2023-02-23T12:52:38.177Z,5.23
2023-02-23T12:57:49.700Z,5.60
2023-02-23T13:03:03.025Z,6.27
2023-02-23T13:08:19.797Z,5.80
2023-02-23T13:13:35.266Z,4.90
2023-02-23T13:18:46.332Z,4.87
2023-02-23T13:23:57.387Z,5.13
2023-02-23T13:29:07.445Z,5.07
2023-02-23T13:34:15.346Z,4.70
2023-02-23T13:39:48.918Z,4.57
2023-02-23T13:45:01.849Z,4.60
2023-02-23T13:50:16.484Z,4.33
2023-02-23T13:55:48.763Z,4.47
2023-02-23T14:01:12.163Z,4.40
2023-02-23T14:06:19.348Z,4.07
2023-02-23T14:11:51.096Z,4.50
2023-02-23T14:17:27.347Z,4.10
2023-02-23T14:22:32.306Z,4.87
2023-02-23T14:27:44.008Z,4.10
2023-02-23T14:32:49.217Z,4.70
2023-02-23T14:38:00.863Z,4.73
2023-02-23T14:43:05.474Z,4.83
2023-02-23T14:48:12.916Z,5.30
2023-02-23T14:53:21.948Z,5.27
2023-02-23T14:58:28.997Z,4.90
2023-02-23T15:03:32.401Z,5.23
2023-02-23T15:08:42.872Z,4.97
2023-02-23T15:13:50.928Z,5.43
2023-02-23T15:19:33.690Z,5.50
2023-02-23T15:24:45.684Z,6.40
2023-02-23T15:29:49.305Z,5.97
2023-02-23T15:34:55.614Z,6.17
2023-02-23T15:40:02.597Z,6.73
2023-02-23T15:45:16.140Z,5.33
2023-02-23T15:50:35.915Z,5.40
2023-02-23T15:55:44.099Z,4.90
2023-02-23T16:00:55.858Z,5.73
2023-02-23T16:06:03.861Z,5.23
2023-02-23T16:11:14.153Z,6.33
2023-02-23T16:16:20.873Z,8.57
2023-02-23T16:21:26.429Z,6.90
2023-02-23T16:26:36.872Z,7.30
2023-02-23T16:31:44.662Z,6.23
2023-02-23T16:36:53.766Z,6.20
2023-02-23T16:42:00.179Z,5.90
2023-02-23T16:47:31.176Z,6.60
2023-02-23T16:52:35.845Z,6.60
2023-02-23T16:57:42.599Z,6.53
2023-02-23T17:02:46.588Z,7.10
2023-02-23T17:07:50.987Z,7.20
2023-02-23T17:12:57.694Z,6.40
2023-02-23T17:18:01.759Z,6.10
2023-02-23T17:23:06.832Z,6.40
2023-02-23T17:28:12.663Z,6.60
2023-02-23T17:33:17.665Z,8.10
2023-02-23T17:38:21.881Z,7.73
2023-02-23T17:43:28.138Z,7.13
2023-02-23T17:48:35.285Z,6.80
2023-02-23T17:53:40.602Z,7.03
2023-02-23T17:58:47.469Z,7.27
2023-02-23T18:03:53.688Z,7.20
2023-02-23T18:08:59.281Z,7.23
2023-02-23T18:14:05.117Z,7.30
2023-02-23T18:19:09.667Z,7.40
2023-02-23T18:24:14.178Z,6.77
2023-02-23T18:29:20.792Z,6.00
2023-02-23T18:34:26.202Z,6.30
2023-02-23T18:39:32.749Z,6.20
2023-02-23T18:44:38.045Z,7.73
2023-02-23T18:49:42.757Z,6.13
2023-02-23T18:54:47.454Z,7.20
2023-02-23T18:59:53.619Z,7.30
2023-02-23T19:05:03.422Z,6.87
2023-02-23T19:10:09.886Z,6.37
2023-02-23T19:15:16.663Z,6.67
2023-02-23T19:20:23.542Z,6.63
2023-02-23T19:25:29.148Z,5.70
2023-02-23T19:30:34.954Z,5.90
2023-02-23T19:35:41.576Z,5.10
2023-02-23T19:40:47.401Z,6.13
2023-02-23T19:45:55.342Z,7.10
2023-02-23T19:51:00.737Z,5.70
2023-02-23T19:56:06.900Z,5.57
2023-02-23T20:01:17.447Z,7.47
2023-02-23T20:06:22.592Z,8.23
2023-02-23T20:11:27.665Z,7.00
2023-02-23T20:16:34.681Z,7.73
2023-02-23T20:21:43.286Z,7.67
2023-02-23T20:26:50.002Z,6.67
2023-02-23T20:31:56.416Z,6.63
2023-02-23T20:37:01.655Z,7.63
2023-02-23T20:42:07.370Z,7.93
2023-02-23T20:47:14.091Z,7.87
2023-02-23T20:52:19.722Z,8.10
2023-02-23T20:57:25.185Z,8.67
2023-02-23T21:02:31.192Z,7.77
2023-02-23T21:07:35.499Z,8.40
2023-02-23T21:12:39.658Z,10.33
2023-02-23T21:17:48.648Z,9.63
2023-02-23T21:22:53.490Z,8.60
2023-02-23T21:28:02.331Z,7.80
2023-02-23T21:33:08.395Z,6.93
2023-02-23T21:38:12.363Z,6.33
2023-02-23T21:43:16.300Z,6.47
2023-02-23T21:48:21.493Z,5.97
2023-02-23T21:53:25.266Z,6.27
2023-02-23T21:58:29.257Z,7.47
2023-02-23T22:03:34.014Z,6.70
2023-02-23T22:08:38.748Z,7.80
2023-02-23T22:13:42.036Z,7.03
2023-02-23T22:18:47.789Z,7.03
2023-02-23T22:23:53.475Z,7.23
2023-02-23T22:28:56.733Z,7.43
2023-02-23T22:34:01.428Z,7.53
2023-02-23T22:39:07.007Z,7.17
2023-02-23T22:44:13.506Z,6.70
2023-02-23T22:49:20.142Z,7.50
2023-02-23T22:54:24.633Z,7.53
2023-02-23T22:59:28.714Z,9.23
2023-02-23T23:04:34.589Z,8.10
2023-02-23T23:09:40.030Z,7.90
2023-02-23T23:14:43.288Z,8.97
2023-02-23T23:19:50.680Z,8.43
2023-02-23T23:24:54.291Z,7.57
2023-02-23T23:29:58.524Z,8.03
2023-02-23T23:35:06.353Z,8.20
2023-02-23T23:40:14.813Z,8.17
2023-02-23T23:45:24.328Z,7.80
2023-02-23T23:50:29.096Z,8.03
2023-02-23T23:55:32.373Z,8.30
